sensor_id;sensor_type;location;lat;lon;timestamp;pressure;altitude;pressure_sealevel;temperature
71081;BMP180;58740;50.672;18.690;2022-11-09T00:01:04;99007.60;;;10.50
71081;BMP180;58740;50.672;18.690;2022-11-09T00:03:32;99002.60;;;10.50
71081;BMP180;58740;50.672;18.690;2022-11-09T00:06:00;98998.40;;;10.50
71081;BMP180;58740;50.672;18.690;2022-11-09T00:08:28;98994.60;;;10.50
71081;BMP180;58740;50.672;18.690;2022-11-09T00:11:05;98999.20;;;10.50
71081;BMP180;58740;50.672;18.690;2022-11-09T00:13:41;98991.60;;;10.50
71081;BMP180;58740;50.672;18.690;2022-11-09T00:16:18;98992.40;;;10.50
71081;BMP180;58740;50.672;18.690;2022-11-09T00:18:47;98986.20;;;10.50
71081;BMP180;58740;50.672;18.690;2022-11-09T00:21:18;98991.40;;;10.50
71081;BMP180;58740;50.672;18.690;2022-11-09T00:23:47;98988.40;;;10.50
71081;BMP180;58740;50.672;18.690;2022-11-09T00:26:17;98995.60;;;10.50
71081;BMP180;58740;50.672;18.690;2022-11-09T00:28:46;98986.00;;;10.50
71081;BMP180;58740;50.672;18.690;2022-11-09T00:31:20;98990.00;;;10.50
71081;BMP180;58740;50.672;18.690;2022-11-09T00:33:50;98988.40;;;10.50
71081;BMP180;58740;50.672;18.690;2022-11-09T00:36:21;98990.80;;;10.58
71081;BMP180;58740;50.672;18.690;2022-11-09T00:38:52;98989.40;;;10.60
71081;BMP180;58740;50.672;18.690;2022-11-09T00:41:21;98985.00;;;10.60
71081;BMP180;58740;50.672;18.690;2022-11-09T00:43:50;98987.40;;;10.56
71081;BMP180;58740;50.672;18.690;2022-11-09T00:46:19;98987.00;;;10.50
71081;BMP180;58740;50.672;18.690;2022-11-09T00:48:47;98982.80;;;10.54
71081;BMP180;58740;50.672;18.690;2022-11-09T00:51:15;98983.00;;;10.58
71081;BMP180;58740;50.672;18.690;2022-11-09T00:53:42;98981.40;;;10.60
71081;BMP180;58740;50.672;18.690;2022-11-09T00:56:11;98975.80;;;10.60
71081;BMP180;58740;50.672;18.690;2022-11-09T00:58:40;98981.40;;;10.56
71081;BMP180;58740;50.672;18.690;2022-11-09T01:01:15;98976.60;;;10.56
71081;BMP180;58740;50.672;18.690;2022-11-09T01:03:44;98980.20;;;10.56
71081;BMP180;58740;50.672;18.690;2022-11-09T01:06:20;98986.00;;;10.60
71081;BMP180;58740;50.672;18.690;2022-11-09T01:08:49;98977.20;;;10.60
71081;BMP180;58740;50.672;18.690;2022-11-09T01:11:19;98982.20;;;10.60
71081;BMP180;58740;50.672;18.690;2022-11-09T01:13:47;98979.40;;;10.60
71081;BMP180;58740;50.672;18.690;2022-11-09T01:16:20;98978.00;;;10.60
71081;BMP180;58740;50.672;18.690;2022-11-09T01:18:53;98976.40;;;10.64
71081;BMP180;58740;50.672;18.690;2022-11-09T01:21:21;98979.00;;;10.60
71081;BMP180;58740;50.672;18.690;2022-11-09T01:23:50;98973.80;;;10.60
71081;BMP180;58740;50.672;18.690;2022-11-09T01:26:18;98971.20;;;10.60
71081;BMP180;58740;50.672;18.690;2022-11-09T01:28:46;98965.60;;;10.60
71081;BMP180;58740;50.672;18.690;2022-11-09T01:31:18;98966.60;;;10.60
71081;BMP180;58740;50.672;18.690;2022-11-09T01:33:47;98969.40;;;10.70
71081;BMP180;58740;50.672;18.690;2022-11-09T01:36:19;98971.80;;;10.70
71081;BMP180;58740;50.672;18.690;2022-11-09T01:38:48;98965.40;;;10.70
71081;BMP180;58740;50.672;18.690;2022-11-09T01:41:22;98970.00;;;10.68
71081;BMP180;58740;50.672;18.690;2022-11-09T01:44:18;98967.60;;;10.70
71081;BMP180;58740;50.672;18.690;2022-11-09T01:47:04;98958.80;;;10.66
71081;BMP180;58740;50.672;18.690;2022-11-09T01:49:52;98967.40;;;10.66
71081;BMP180;58740;50.672;18.690;2022-11-09T01:52:32;98961.80;;;10.70
71081;BMP180;58740;50.672;18.690;2022-11-09T01:55:12;98962.80;;;10.70
71081;BMP180;58740;50.672;18.690;2022-11-09T02:00:20;98955.20;;;10.64
71081;BMP180;58740;50.672;18.690;2022-11-09T02:02:54;98953.40;;;10.60
71081;BMP180;58740;50.672;18.690;2022-11-09T02:05:29;98958.20;;;10.60
71081;BMP180;58740;50.672;18.690;2022-11-09T02:08:01;98966.20;;;10.60
71081;BMP180;58740;50.672;18.690;2022-11-09T02:11:08;98967.80;;;10.60
71081;BMP180;58740;50.672;18.690;2022-11-09T02:13:39;98966.40;;;10.60
71081;BMP180;58740;50.672;18.690;2022-11-09T02:16:11;98964.40;;;10.60
71081;BMP180;58740;50.672;18.690;2022-11-09T02:18:55;98964.00;;;10.60
71081;BMP180;58740;50.672;18.690;2022-11-09T02:21:27;98969.60;;;10.60
71081;BMP180;58740;50.672;18.690;2022-11-09T02:23:56;98972.60;;;10.60
71081;BMP180;58740;50.672;18.690;2022-11-09T02:26:38;98967.60;;;10.60
71081;BMP180;58740;50.672;18.690;2022-11-09T02:29:11;98967.00;;;10.60
71081;BMP180;58740;50.672;18.690;2022-11-09T02:31:46;98966.00;;;10.60
71081;BMP180;58740;50.672;18.690;2022-11-09T02:34:18;98957.40;;;10.58
71081;BMP180;58740;50.672;18.690;2022-11-09T02:36:46;98963.40;;;10.50
71081;BMP180;58740;50.672;18.690;2022-11-09T02:39:20;98965.00;;;10.50
71081;BMP180;58740;50.672;18.690;2022-11-09T02:42:10;98957.40;;;10.52
71081;BMP180;58740;50.672;18.690;2022-11-09T02:44:58;98955.20;;;10.56
71081;BMP180;58740;50.672;18.690;2022-11-09T02:47:26;98955.00;;;10.60
71081;BMP180;58740;50.672;18.690;2022-11-09T02:49:54;98955.00;;;10.60
71081;BMP180;58740;50.672;18.690;2022-11-09T02:52:24;98956.00;;;10.50
71081;BMP180;58740;50.672;18.690;2022-11-09T02:54:52;98953.60;;;10.50
71081;BMP180;58740;50.672;18.690;2022-11-09T02:57:20;98949.00;;;10.50
71081;BMP180;58740;50.672;18.690;2022-11-09T02:59:47;98951.00;;;10.50
71081;BMP180;58740;50.672;18.690;2022-11-09T03:02:15;98956.60;;;10.50
71081;BMP180;58740;50.672;18.690;2022-11-09T03:04:43;98957.00;;;10.50
71081;BMP180;58740;50.672;18.690;2022-11-09T03:07:11;98955.60;;;10.50
71081;BMP180;58740;50.672;18.690;2022-11-09T03:09:39;98959.00;;;10.50
71081;BMP180;58740;50.672;18.690;2022-11-09T03:12:06;98961.20;;;10.50
71081;BMP180;58740;50.672;18.690;2022-11-09T03:14:55;98955.80;;;10.40
71081;BMP180;58740;50.672;18.690;2022-11-09T03:17:22;98956.20;;;10.40
71081;BMP180;58740;50.672;18.690;2022-11-09T03:19:51;98951.40;;;10.40
71081;BMP180;58740;50.672;18.690;2022-11-09T03:22:20;98952.40;;;10.40
71081;BMP180;58740;50.672;18.690;2022-11-09T03:24:48;98944.40;;;10.42
71081;BMP180;58740;50.672;18.690;2022-11-09T03:27:16;98944.40;;;10.50
71081;BMP180;58740;50.672;18.690;2022-11-09T03:29:44;98946.40;;;10.44
71081;BMP180;58740;50.672;18.690;2022-11-09T03:32:11;98941.00;;;10.40
71081;BMP180;58740;50.672;18.690;2022-11-09T03:34:39;98939.40;;;10.40
71081;BMP180;58740;50.672;18.690;2022-11-09T03:37:07;98945.40;;;10.40
71081;BMP180;58740;50.672;18.690;2022-11-09T03:39:35;98944.00;;;10.40
71081;BMP180;58740;50.672;18.690;2022-11-09T03:42:02;98940.60;;;10.40
71081;BMP180;58740;50.672;18.690;2022-11-09T03:44:30;98939.80;;;10.40
71081;BMP180;58740;50.672;18.690;2022-11-09T03:46:58;98938.60;;;10.40
71081;BMP180;58740;50.672;18.690;2022-11-09T03:49:26;98936.00;;;10.40
71081;BMP180;58740;50.672;18.690;2022-11-09T03:51:53;98941.80;;;10.40
71081;BMP180;58740;50.672;18.690;2022-11-09T03:54:21;98946.80;;;10.40
71081;BMP180;58740;50.672;18.690;2022-11-09T03:56:49;98942.80;;;10.40
71081;BMP180;58740;50.672;18.690;2022-11-09T03:59:16;98942.80;;;10.40
71081;BMP180;58740;50.672;18.690;2022-11-09T04:01:44;98947.40;;;10.40
71081;BMP180;58740;50.672;18.690;2022-11-09T04:04:12;98935.20;;;10.40
71081;BMP180;58740;50.672;18.690;2022-11-09T04:06:40;98932.80;;;10.40
71081;BMP180;58740;50.672;18.690;2022-11-09T04:09:09;98929.60;;;10.40
71081;BMP180;58740;50.672;18.690;2022-11-09T04:11:37;98929.80;;;10.40
71081;BMP180;58740;50.672;18.690;2022-11-09T04:14:05;98927.60;;;10.40
71081;BMP180;58740;50.672;18.690;2022-11-09T04:16:32;98925.60;;;10.32
71081;BMP180;58740;50.672;18.690;2022-11-09T04:19:00;98920.80;;;10.30
71081;BMP180;58740;50.672;18.690;2022-11-09T04:21:28;98923.60;;;10.30
71081;BMP180;58740;50.672;18.690;2022-11-09T04:23:55;98916.20;;;10.34
71081;BMP180;58740;50.672;18.690;2022-11-09T04:26:23;98918.80;;;10.30
71081;BMP180;58740;50.672;18.690;2022-11-09T04:28:51;98921.80;;;10.30
71081;BMP180;58740;50.672;18.690;2022-11-09T04:31:19;98918.00;;;10.30
71081;BMP180;58740;50.672;18.690;2022-11-09T04:33:54;98924.80;;;10.30
71081;BMP180;58740;50.672;18.690;2022-11-09T04:36:22;98926.00;;;10.30
71081;BMP180;58740;50.672;18.690;2022-11-09T04:38:50;98920.00;;;10.30
71081;BMP180;58740;50.672;18.690;2022-11-09T04:41:18;98927.20;;;10.30
71081;BMP180;58740;50.672;18.690;2022-11-09T04:43:45;98931.40;;;10.30
71081;BMP180;58740;50.672;18.690;2022-11-09T04:46:13;98930.80;;;10.30
71081;BMP180;58740;50.672;18.690;2022-11-09T04:48:40;98924.80;;;10.30
71081;BMP180;58740;50.672;18.690;2022-11-09T04:51:09;98919.20;;;10.30
71081;BMP180;58740;50.672;18.690;2022-11-09T04:53:37;98927.20;;;10.32
71081;BMP180;58740;50.672;18.690;2022-11-09T04:56:06;98921.20;;;10.32
71081;BMP180;58740;50.672;18.690;2022-11-09T04:58:34;98929.60;;;10.30
71081;BMP180;58740;50.672;18.690;2022-11-09T05:01:05;98925.20;;;10.30
71081;BMP180;58740;50.672;18.690;2022-11-09T05:03:33;98922.60;;;10.36
71081;BMP180;58740;50.672;18.690;2022-11-09T05:06:02;98929.80;;;10.40
71081;BMP180;58740;50.672;18.690;2022-11-09T05:08:53;98928.60;;;10.36
71081;BMP180;58740;50.672;18.690;2022-11-09T05:11:22;98926.80;;;10.34
71081;BMP180;58740;50.672;18.690;2022-11-09T05:13:50;98929.60;;;10.30
71081;BMP180;58740;50.672;18.690;2022-11-09T05:16:19;98936.20;;;10.30
71081;BMP180;58740;50.672;18.690;2022-11-09T05:18:47;98940.80;;;10.30
71081;BMP180;58740;50.672;18.690;2022-11-09T05:21:16;98938.80;;;10.30
71081;BMP180;58740;50.672;18.690;2022-11-09T05:23:45;98935.20;;;10.30
71081;BMP180;58740;50.672;18.690;2022-11-09T05:26:38;98935.60;;;10.30
71081;BMP180;58740;50.672;18.690;2022-11-09T05:29:11;98934.20;;;10.30
71081;BMP180;58740;50.672;18.690;2022-11-09T05:31:39;98939.20;;;10.30
71081;BMP180;58740;50.672;18.690;2022-11-09T05:34:11;98941.80;;;10.30
71081;BMP180;58740;50.672;18.690;2022-11-09T05:36:40;98939.80;;;10.30
71081;BMP180;58740;50.672;18.690;2022-11-09T05:39:08;98941.20;;;10.28
71081;BMP180;58740;50.672;18.690;2022-11-09T05:41:36;98942.60;;;10.30
71081;BMP180;58740;50.672;18.690;2022-11-09T05:44:03;98937.80;;;10.30
71081;BMP180;58740;50.672;18.690;2022-11-09T05:46:31;98941.20;;;10.30
71081;BMP180;58740;50.672;18.690;2022-11-09T05:49:00;98950.40;;;10.30
71081;BMP180;58740;50.672;18.690;2022-11-09T05:51:28;98943.40;;;10.30
71081;BMP180;58740;50.672;18.690;2022-11-09T05:53:55;98944.60;;;10.30
71081;BMP180;58740;50.672;18.690;2022-11-09T05:56:23;98940.80;;;10.22
71081;BMP180;58740;50.672;18.690;2022-11-09T05:58:51;98940.60;;;10.26
71081;BMP180;58740;50.672;18.690;2022-11-09T06:01:19;98946.80;;;10.28
71081;BMP180;58740;50.672;18.690;2022-11-09T06:03:47;98943.40;;;10.30
71081;BMP180;58740;50.672;18.690;2022-11-09T06:06:16;98944.80;;;10.30
71081;BMP180;58740;50.672;18.690;2022-11-09T06:08:44;98948.80;;;10.30
71081;BMP180;58740;50.672;18.690;2022-11-09T06:11:12;98945.40;;;10.30
71081;BMP180;58740;50.672;18.690;2022-11-09T06:13:48;98949.60;;;10.30
71081;BMP180;58740;50.672;18.690;2022-11-09T06:16:16;98943.80;;;10.30
71081;BMP180;58740;50.672;18.690;2022-11-09T06:18:44;98943.00;;;10.30
71081;BMP180;58740;50.672;18.690;2022-11-09T06:21:12;98954.20;;;10.30
71081;BMP180;58740;50.672;18.690;2022-11-09T06:23:39;98946.00;;;10.30
71081;BMP180;58740;50.672;18.690;2022-11-09T06:26:10;98952.00;;;10.34
71081;BMP180;58740;50.672;18.690;2022-11-09T06:28:40;98952.80;;;10.40
71081;BMP180;58740;50.672;18.690;2022-11-09T06:31:12;98944.00;;;10.40
71081;BMP180;58740;50.672;18.690;2022-11-09T06:33:40;98938.00;;;10.40
71081;BMP180;58740;50.672;18.690;2022-11-09T06:36:09;98939.00;;;10.40
71081;BMP180;58740;50.672;18.690;2022-11-09T06:38:38;98936.20;;;10.40
71081;BMP180;58740;50.672;18.690;2022-11-09T06:41:08;98930.00;;;10.40
71081;BMP180;58740;50.672;18.690;2022-11-09T06:43:37;98932.80;;;10.40
71081;BMP180;58740;50.672;18.690;2022-11-09T06:46:05;98926.20;;;10.40
71081;BMP180;58740;50.672;18.690;2022-11-09T06:48:33;98926.20;;;10.46
71081;BMP180;58740;50.672;18.690;2022-11-09T06:51:02;98929.20;;;10.50
71081;BMP180;58740;50.672;18.690;2022-11-09T06:53:33;98927.80;;;10.50
71081;BMP180;58740;50.672;18.690;2022-11-09T06:56:03;98931.40;;;10.50
71081;BMP180;58740;50.672;18.690;2022-11-09T06:58:31;98932.80;;;10.50
71081;BMP180;58740;50.672;18.690;2022-11-09T07:01:14;98938.60;;;10.60
71081;BMP180;58740;50.672;18.690;2022-11-09T07:03:43;98936.40;;;10.60
71081;BMP180;58740;50.672;18.690;2022-11-09T07:06:11;98935.20;;;10.60
71081;BMP180;58740;50.672;18.690;2022-11-09T07:08:40;98930.40;;;10.60
71081;BMP180;58740;50.672;18.690;2022-11-09T07:11:14;98934.60;;;10.68
71081;BMP180;58740;50.672;18.690;2022-11-09T07:13:47;98931.80;;;10.70
71081;BMP180;58740;50.672;18.690;2022-11-09T07:16:23;98942.00;;;10.70
71081;BMP180;58740;50.672;18.690;2022-11-09T07:18:50;98933.20;;;10.72
71081;BMP180;58740;50.672;18.690;2022-11-09T07:21:18;98935.80;;;10.80
71081;BMP180;58740;50.672;18.690;2022-11-09T07:23:48;98936.60;;;10.80
71081;BMP180;58740;50.672;18.690;2022-11-09T07:26:16;98935.40;;;10.80
71081;BMP180;58740;50.672;18.690;2022-11-09T07:28:44;98936.00;;;10.84
71081;BMP180;58740;50.672;18.690;2022-11-09T07:31:12;98940.00;;;10.82
71081;BMP180;58740;50.672;18.690;2022-11-09T07:33:39;98945.20;;;10.86
71081;BMP180;58740;50.672;18.690;2022-11-09T07:36:08;98955.00;;;10.90
71081;BMP180;58740;50.672;18.690;2022-11-09T07:38:35;98949.60;;;10.90
71081;BMP180;58740;50.672;18.690;2022-11-09T07:41:03;98951.00;;;10.90
71081;BMP180;58740;50.672;18.690;2022-11-09T07:43:31;98946.20;;;11.00
71081;BMP180;58740;50.672;18.690;2022-11-09T07:46:03;98945.40;;;11.00
71081;BMP180;58740;50.672;18.690;2022-11-09T07:48:31;98946.20;;;10.96
71081;BMP180;58740;50.672;18.690;2022-11-09T07:51:00;98943.00;;;11.00
71081;BMP180;58740;50.672;18.690;2022-11-09T07:53:29;98937.60;;;11.00
71081;BMP180;58740;50.672;18.690;2022-11-09T07:56:00;98933.40;;;11.00
71081;BMP180;58740;50.672;18.690;2022-11-09T07:58:29;98933.60;;;11.00
71081;BMP180;58740;50.672;18.690;2022-11-09T08:00:58;98937.00;;;11.00
71081;BMP180;58740;50.672;18.690;2022-11-09T08:03:26;98940.80;;;11.00
71081;BMP180;58740;50.672;18.690;2022-11-09T08:05:55;98943.00;;;11.00
71081;BMP180;58740;50.672;18.690;2022-11-09T08:08:24;98931.60;;;11.00
71081;BMP180;58740;50.672;18.690;2022-11-09T08:10:52;98926.40;;;11.00
71081;BMP180;58740;50.672;18.690;2022-11-09T08:13:20;98928.20;;;11.00
71081;BMP180;58740;50.672;18.690;2022-11-09T08:15:48;98933.00;;;11.00
71081;BMP180;58740;50.672;18.690;2022-11-09T08:18:19;98936.80;;;11.00
71081;BMP180;58740;50.672;18.690;2022-11-09T08:20:48;98930.20;;;11.00
71081;BMP180;58740;50.672;18.690;2022-11-09T08:23:18;98929.40;;;11.00
71081;BMP180;58740;50.672;18.690;2022-11-09T08:25:49;98935.20;;;11.02
71081;BMP180;58740;50.672;18.690;2022-11-09T08:28:17;98939.20;;;11.10
71081;BMP180;58740;50.672;18.690;2022-11-09T08:30:55;98933.60;;;11.10
71081;BMP180;58740;50.672;18.690;2022-11-09T08:33:26;98933.60;;;11.20
71081;BMP180;58740;50.672;18.690;2022-11-09T08:35:55;98934.00;;;11.20
71081;BMP180;58740;50.672;18.690;2022-11-09T08:38:23;98933.20;;;11.22
71081;BMP180;58740;50.672;18.690;2022-11-09T08:40:58;98931.40;;;11.30
71081;BMP180;58740;50.672;18.690;2022-11-09T08:43:26;98930.40;;;11.30
71081;BMP180;58740;50.672;18.690;2022-11-09T08:45:54;98936.40;;;11.30
71081;BMP180;58740;50.672;18.690;2022-11-09T08:48:22;98932.40;;;11.38
71081;BMP180;58740;50.672;18.690;2022-11-09T08:50:56;98932.40;;;11.40
71081;BMP180;58740;50.672;18.690;2022-11-09T08:53:26;98930.80;;;11.40
71081;BMP180;58740;50.672;18.690;2022-11-09T08:55:55;98933.40;;;11.40
71081;BMP180;58740;50.672;18.690;2022-11-09T08:58:23;98940.00;;;11.40
71081;BMP180;58740;50.672;18.690;2022-11-09T09:00:51;98945.60;;;11.40
71081;BMP180;58740;50.672;18.690;2022-11-09T09:03:18;98937.40;;;11.40
71081;BMP180;58740;50.672;18.690;2022-11-09T09:05:46;98951.40;;;11.40
71081;BMP180;58740;50.672;18.690;2022-11-09T09:08:14;98946.40;;;11.40
71081;BMP180;58740;50.672;18.690;2022-11-09T09:10:42;98947.20;;;11.40
71081;BMP180;58740;50.672;18.690;2022-11-09T09:13:10;98947.80;;;11.42
71081;BMP180;58740;50.672;18.690;2022-11-09T09:15:38;98944.00;;;11.50
71081;BMP180;58740;50.672;18.690;2022-11-09T09:18:05;98949.60;;;11.50
71081;BMP180;58740;50.672;18.690;2022-11-09T09:20:33;98949.20;;;11.50
71081;BMP180;58740;50.672;18.690;2022-11-09T09:23:01;98946.80;;;11.60
71081;BMP180;58740;50.672;18.690;2022-11-09T09:25:29;98954.80;;;11.60
71081;BMP180;58740;50.672;18.690;2022-11-09T09:27:56;98949.20;;;11.66
71081;BMP180;58740;50.672;18.690;2022-11-09T09:30:24;98946.20;;;11.70
71081;BMP180;58740;50.672;18.690;2022-11-09T09:32:57;98952.00;;;11.70
71081;BMP180;58740;50.672;18.690;2022-11-09T09:35:27;98955.40;;;11.80
71081;BMP180;58740;50.672;18.690;2022-11-09T09:37:55;98953.20;;;11.80
71081;BMP180;58740;50.672;18.690;2022-11-09T09:40:34;98949.40;;;11.82
71081;BMP180;58740;50.672;18.690;2022-11-09T09:43:03;98948.60;;;11.90
71081;BMP180;58740;50.672;18.690;2022-11-09T09:45:34;98955.60;;;11.90
71081;BMP180;58740;50.672;18.690;2022-11-09T09:48:29;98954.40;;;12.00
71081;BMP180;58740;50.672;18.690;2022-11-09T09:51:08;98951.60;;;12.10
71081;BMP180;58740;50.672;18.690;2022-11-09T09:53:47;98945.80;;;12.10
71081;BMP180;58740;50.672;18.690;2022-11-09T09:56:22;98944.40;;;12.10
71081;BMP180;58740;50.672;18.690;2022-11-09T09:59:19;98940.40;;;12.10
71081;BMP180;58740;50.672;18.690;2022-11-09T10:01:50;98935.60;;;12.10
71081;BMP180;58740;50.672;18.690;2022-11-09T10:04:22;98934.60;;;12.10
71081;BMP180;58740;50.672;18.690;2022-11-09T10:16:14;98931.00;;;12.20
71081;BMP180;58740;50.672;18.690;2022-11-09T10:22:39;98922.00;;;12.40
71081;BMP180;58740;50.672;18.690;2022-11-09T10:25:23;98923.40;;;12.40
71081;BMP180;58740;50.672;18.690;2022-11-09T10:28:15;98920.00;;;12.50
71081;BMP180;58740;50.672;18.690;2022-11-09T10:30:45;98926.40;;;12.50
71081;BMP180;58740;50.672;18.690;2022-11-09T10:33:17;98920.40;;;12.54
71081;BMP180;58740;50.672;18.690;2022-11-09T10:36:30;98923.40;;;12.60
71081;BMP180;58740;50.672;18.690;2022-11-09T10:39:00;98917.80;;;12.60
71081;BMP180;58740;50.672;18.690;2022-11-09T10:41:36;98922.00;;;12.60
71081;BMP180;58740;50.672;18.690;2022-11-09T10:44:14;98926.20;;;12.70
71081;BMP180;58740;50.672;18.690;2022-11-09T10:47:20;98923.20;;;12.70
